createdAt,value
2022-12-15T00:02:10.137Z,99941.41
2022-12-15T00:04:55.225Z,99941.69
2022-12-15T00:07:40.264Z,99941.13
2022-12-15T00:10:25.540Z,99934.06
2022-12-15T00:13:10.706Z,99942.53
2022-12-15T00:15:55.586Z,99945.28
2022-12-15T00:18:40.533Z,99949.09
2022-12-15T00:21:25.210Z,99953.72
2022-12-15T00:24:10.012Z,99952.41
2022-12-15T00:26:54.754Z,99955.69
2022-12-15T00:29:39.551Z,99955.16
2022-12-15T00:32:24.747Z,99961.19
2022-12-15T00:35:09.383Z,99959.03
2022-12-15T00:37:54.212Z,99962.03
2022-12-15T00:40:20.554Z,99956.34
2022-12-15T00:42:49.509Z,99946.78
2022-12-15T00:45:16.233Z,99952.53
2022-12-15T00:47:42.779Z,99949.56
2022-12-15T00:50:27.883Z,99949.84
2022-12-15T00:53:13.067Z,99965.66
2022-12-15T00:55:57.975Z,99956.16
2022-12-15T00:58:43.073Z,99964.59
2022-12-15T01:01:28.905Z,99961.34
2022-12-15T01:04:14.090Z,99963.25
2022-12-15T01:06:58.996Z,99964.88
2022-12-15T01:09:44.203Z,99966.81
2022-12-15T01:12:29.378Z,99960.25
2022-12-15T01:15:14.147Z,99968.13
2022-12-15T01:17:59.216Z,99972.50
2022-12-15T01:20:25.652Z,99965.16
2022-12-15T01:22:54.830Z,99971.41
2022-12-15T01:25:24.288Z,99973.84
2022-12-15T01:27:51.473Z,99972.75
2022-12-15T01:30:21.698Z,99979.03
2022-12-15T01:32:48.827Z,99979.56
2022-12-15T01:35:15.799Z,99991.81
2022-12-15T01:37:42.233Z,99987.19
2022-12-15T01:40:34.275Z,99985.81
2022-12-15T01:43:00.959Z,99983.63
2022-12-15T01:45:27.267Z,99984.16
2022-12-15T01:47:57.530Z,99995.59
2022-12-15T01:50:26.150Z,100001.59
2022-12-15T01:52:54.055Z,100002.66
2022-12-15T01:55:25.571Z,100005.38
2022-12-15T01:57:56.733Z,100002.06
2022-12-15T02:00:23.296Z,99999.56
2022-12-15T02:02:50.966Z,100000.09
2022-12-15T02:05:18.023Z,99998.44
2022-12-15T02:07:44.347Z,100004.16
2022-12-15T02:10:11.983Z,100008.50
2022-12-15T02:13:01.394Z,100013.13
2022-12-15T02:15:38.288Z,100026.75
2022-12-15T02:18:49.611Z,100029.72
2022-12-15T02:21:24.578Z,100020.69
2022-12-15T02:23:54.061Z,100031.84
2022-12-15T02:26:58.192Z,100015.19
2022-12-15T02:29:35.317Z,100020.31
2022-12-15T02:32:28.536Z,100021.38
2022-12-15T02:35:04.622Z,100024.88
2022-12-15T02:37:36.924Z,100030.84
2022-12-15T02:40:05.897Z,100018.50
2022-12-15T02:42:35.768Z,100028.88
2022-12-15T02:45:07.358Z,100033.78
2022-12-15T02:47:38.871Z,100043.59
2022-12-15T02:50:23.751Z,100050.69
2022-12-15T02:53:23.629Z,100053.13
2022-12-15T02:56:11.937Z,100042.75
2022-12-15T02:58:56.102Z,100041.13
2022-12-15T03:01:26.660Z,100024.41
2022-12-15T03:03:55.490Z,100036.47
2022-12-15T03:06:24.405Z,100041.13
2022-12-15T03:08:50.923Z,100047.66
2022-12-15T03:11:17.264Z,100042.50
2022-12-15T03:13:43.670Z,100056.44
2022-12-15T03:16:10.099Z,100054.53
2022-12-15T03:18:36.742Z,100059.44
2022-12-15T03:21:03.758Z,100062.19
2022-12-15T03:23:30.511Z,100062.47
2022-12-15T03:25:57.156Z,100060.03
2022-12-15T03:28:23.492Z,100062.78
2022-12-15T03:30:50.409Z,100067.44
2022-12-15T03:33:17.859Z,100066.31
2022-12-15T03:35:44.359Z,100066.63
2022-12-15T03:38:10.712Z,100072.91
2022-12-15T03:40:37.213Z,100079.16
2022-12-15T03:43:03.564Z,100084.63
2022-12-15T03:45:30.116Z,100078.34
2022-12-15T03:47:57.214Z,100081.91
2022-12-15T03:50:26.213Z,100071.28
2022-12-15T03:52:57.856Z,100074.53
2022-12-15T03:55:24.376Z,100069.88
2022-12-15T03:57:51.338Z,100069.34
2022-12-15T04:00:19.766Z,100076.72
2022-12-15T04:02:46.908Z,100076.72
2022-12-15T04:05:19.742Z,100079.72
2022-12-15T04:07:46.201Z,100081.66
2022-12-15T04:10:13.237Z,100075.88
2022-12-15T04:12:43.887Z,100072.63
2022-12-15T04:15:11.675Z,100074.56
2022-12-15T04:17:38.522Z,100069.38
2022-12-15T04:20:10.326Z,100075.13
2022-12-15T04:22:41.732Z,100080.59
2022-12-15T04:25:32.507Z,100081.69
2022-12-15T04:28:18.097Z,100090.69
2022-12-15T04:31:14.320Z,100091.28
2022-12-15T04:34:03.743Z,100096.47
2022-12-15T04:36:49.666Z,100094.03
2022-12-15T04:39:34.903Z,100094.28
2022-12-15T04:42:20.586Z,100104.41
2022-12-15T04:45:07.657Z,100092.94
2022-12-15T04:47:52.628Z,100085.03
2022-12-15T04:50:37.649Z,100078.75
2022-12-15T04:53:34.998Z,100087.53
2022-12-15T04:56:21.134Z,100088.59
2022-12-15T04:59:06.731Z,100083.72
2022-12-15T05:01:53.200Z,100096.03
2022-12-15T05:04:38.178Z,100087.31
2022-12-15T05:07:23.290Z,100085.94
2022-12-15T05:10:14.363Z,100094.44
2022-12-15T05:13:02.705Z,100094.72
2022-12-15T05:15:48.760Z,100099.38
2022-12-15T05:18:33.899Z,100093.34
2022-12-15T05:21:18.683Z,100097.19
2022-12-15T05:24:03.693Z,100100.47
2022-12-15T05:26:52.624Z,100105.94
2022-12-15T05:29:38.346Z,100101.56
2022-12-15T05:32:04.942Z,100101.56
2022-12-15T05:34:34.920Z,100110.59
2022-12-15T05:37:03.095Z,100110.59
2022-12-15T05:39:29.802Z,100109.47
2022-12-15T05:41:56.923Z,100119.59
2022-12-15T05:44:24.942Z,100128.59
2022-12-15T05:46:51.393Z,100129.44
2022-12-15T05:49:19.195Z,100127.53
2022-12-15T05:51:47.544Z,100126.16
2022-12-15T05:54:16.323Z,100126.97
2022-12-15T05:56:43.033Z,100135.16
2022-12-15T05:59:09.604Z,100131.63
2022-12-15T06:01:36.914Z,100136.28
2022-12-15T06:04:04.184Z,100135.47
2022-12-15T06:06:30.618Z,100138.19
2022-12-15T06:08:57.238Z,100143.66
2022-12-15T06:11:23.744Z,100149.09
2022-12-15T06:13:50.297Z,100152.66
2022-12-15T06:16:21.404Z,100147.19
2022-12-15T06:18:51.205Z,100144.75
2022-12-15T06:21:19.945Z,100156.75
2022-12-15T06:23:46.490Z,100148.03
2022-12-15T06:26:20.025Z,100147.22
2022-12-15T06:28:47.343Z,100155.41
2022-12-15T06:31:14.499Z,100153.78
2022-12-15T06:33:41.510Z,100160.34
2022-12-15T06:36:10.998Z,100154.63
2022-12-15T06:38:37.654Z,100158.72
2022-12-15T06:41:05.932Z,100163.66
2022-12-15T06:43:33.750Z,100164.75
2022-12-15T06:46:02.247Z,100164.75
2022-12-15T06:48:28.719Z,100169.66
2022-12-15T06:50:56.270Z,100167.75
2022-12-15T06:53:24.290Z,100156.56
2022-12-15T06:55:51.088Z,100160.16
2022-12-15T06:58:18.440Z,100164.25
2022-12-15T07:00:46.450Z,100168.88
2022-12-15T07:03:16.206Z,100166.69
2022-12-15T07:05:44.244Z,100165.06
2022-12-15T07:08:11.992Z,100170.81
2022-12-15T07:10:40.297Z,100170.25
2022-12-15T07:13:08.624Z,100186.13
2022-12-15T07:15:36.901Z,100186.41
2022-12-15T07:18:03.521Z,100191.59
2022-12-15T07:20:31.921Z,100194.31
2022-12-15T07:22:58.352Z,100188.88
2022-12-15T07:25:24.755Z,100186.97
2022-12-15T07:27:51.100Z,100198.16
2022-12-15T07:30:17.837Z,100198.44
2022-12-15T07:32:50.249Z,100197.63
2022-12-15T07:35:17.858Z,100200.63
2022-12-15T07:37:44.420Z,100197.63
2022-12-15T07:40:11.153Z,100198.44
2022-12-15T07:42:37.595Z,100209.34
2022-12-15T07:45:05.362Z,100205.78
2022-12-15T07:47:32.223Z,100208.81
2022-12-15T07:49:58.716Z,100215.09
2022-12-15T07:52:25.207Z,100220.53
2022-12-15T07:54:51.746Z,100221.34
2022-12-15T07:57:18.940Z,100222.97
2022-12-15T07:59:45.392Z,100225.72
2022-12-15T08:02:12.934Z,100231.72
2022-12-15T08:04:40.453Z,100225.69
2022-12-15T08:07:07.566Z,100231.44
2022-12-15T08:09:34.142Z,100238.28
2022-12-15T08:12:00.674Z,100241.25
2022-12-15T08:14:28.836Z,100246.97
2022-12-15T08:16:55.529Z,100247.25
2022-12-15T08:19:26.735Z,100249.16
2022-12-15T08:21:53.107Z,100244.50
2022-12-15T08:24:19.766Z,100243.66
2022-12-15T08:26:50.414Z,100240.91
2022-12-15T08:29:49.372Z,100240.91
2022-12-15T08:32:04.956Z,100235.69
2022-12-15T08:34:31.504Z,100236.19
2022-12-15T08:36:58.088Z,100246.56
2022-12-15T08:39:24.510Z,100238.34
2022-12-15T08:41:51.036Z,100245.16
2022-12-15T08:44:17.850Z,100242.91
2022-12-15T08:46:44.786Z,100238.22
2022-12-15T08:49:14.191Z,100246.97
2022-12-15T08:51:43.145Z,100252.09
2022-12-15T08:54:09.487Z,100238.13
2022-12-15T08:56:36.327Z,100242.72
2022-12-15T08:59:03.242Z,100244.34
2022-12-15T09:01:32.644Z,100243.22
2022-12-15T09:03:59.736Z,100248.34
2022-12-15T09:06:29.056Z,100245.31
2022-12-15T09:08:57.045Z,100247.72
2022-12-15T09:11:24.689Z,100253.69
2022-12-15T09:13:51.469Z,100255.00
2022-12-15T09:16:19.157Z,100256.59
2022-12-15T09:18:48.353Z,100265.59
2022-12-15T09:21:15.197Z,100275.41
2022-12-15T09:23:42.774Z,100276.97
2022-12-15T09:26:11.929Z,100273.91
2022-12-15T09:28:39.195Z,100273.59
2022-12-15T09:31:11.225Z,100268.38
2022-12-15T09:33:38.695Z,100266.91
2022-12-15T09:36:06.509Z,100286.56
2022-12-15T09:38:39.208Z,100291.19
2022-12-15T09:41:20.212Z,100291.94
2022-12-15T09:43:52.340Z,100295.44
2022-12-15T09:46:42.973Z,100295.41
2022-12-15T09:49:36.652Z,100296.66
2022-12-15T09:52:19.277Z,100312.78
2022-12-15T09:54:46.650Z,100304.22
2022-12-15T09:57:19.113Z,100300.28
2022-12-15T10:00:05.307Z,100313.66
2022-12-15T10:02:44.151Z,100307.56
2022-12-15T10:06:14.845Z,100311.88
2022-12-15T10:08:42.804Z,100313.94
2022-12-15T10:11:24.133Z,100313.91
2022-12-15T10:14:06.508Z,100315.47
2022-12-15T10:16:40.812Z,100313.47
2022-12-15T10:19:14.078Z,100325.19
2022-12-15T10:21:40.839Z,100321.25
2022-12-15T10:24:31.431Z,100322.31
2022-12-15T10:27:22.481Z,100321.97
2022-12-15T10:30:02.192Z,100332.88
2022-12-15T10:32:31.606Z,100337.69
2022-12-15T10:34:58.216Z,100326.63
2022-12-15T10:37:24.740Z,100328.22
2022-12-15T10:39:52.120Z,100330.06
2022-12-15T10:42:23.610Z,100333.53
2022-12-15T10:44:53.122Z,100328.78
2022-12-15T10:47:31.420Z,100321.28
2022-12-15T10:50:38.822Z,100317.34
2022-12-15T10:53:09.560Z,100320.00
2022-12-15T10:55:37.612Z,100320.75
2022-12-15T10:58:20.687Z,100317.41
2022-12-15T11:00:50.985Z,100313.44
2022-12-15T11:03:26.725Z,100311.47
2022-12-15T11:05:55.789Z,100307.81
2022-12-15T11:08:25.533Z,100310.16
2022-12-15T11:11:16.178Z,100305.38
2022-12-15T11:13:43.811Z,100309.38
2022-12-15T11:16:18.533Z,100312.31
2022-12-15T11:18:48.834Z,100295.13
2022-12-15T11:21:35.015Z,100296.97
2022-12-15T11:24:04.795Z,100294.34
2022-12-15T11:26:56.796Z,100295.38
2022-12-15T11:29:29.960Z,100302.09
2022-12-15T11:32:01.438Z,100300.56
2022-12-15T11:34:38.490Z,100298.53
2022-12-15T11:37:42.907Z,100300.84
2022-12-15T11:40:36.569Z,100297.72
2022-12-15T11:43:27.797Z,100291.81
2022-12-15T11:46:00.767Z,100292.25
2022-12-15T11:48:48.954Z,100283.06
2022-12-15T11:51:21.455Z,100278.13
2022-12-15T11:54:07.976Z,100277.72
2022-12-15T11:56:50.439Z,100270.47
2022-12-15T11:59:39.034Z,100266.78
2022-12-15T12:02:20.009Z,100271.34
2022-12-15T12:04:56.008Z,100267.69
2022-12-15T12:07:49.639Z,100273.66
2022-12-15T12:10:29.905Z,100270.00
2022-12-15T12:13:21.405Z,100263.88
2022-12-15T12:16:24.256Z,100260.50
2022-12-15T12:18:57.489Z,100259.53
2022-12-15T12:21:35.890Z,100267.19
2022-12-15T12:24:21.328Z,100260.13
2022-12-15T12:27:00.695Z,100263.38
2022-12-15T12:29:37.872Z,100256.91
2022-12-15T12:32:13.053Z,100268.13
2022-12-15T12:35:31.405Z,100264.72
2022-12-15T12:37:51.151Z,100262.69
2022-12-15T12:40:31.364Z,100257.34
2022-12-15T12:42:59.205Z,100248.13
2022-12-15T12:45:50.208Z,100243.94
2022-12-15T12:48:25.287Z,100242.50
2022-12-15T12:51:10.089Z,100239.59
2022-12-15T12:53:36.809Z,100236.22
2022-12-15T12:56:03.759Z,100232.03
2022-12-15T12:58:45.263Z,100233.94
2022-12-15T13:01:30.999Z,100223.09
2022-12-15T13:04:12.040Z,100228.81
2022-12-15T13:06:38.368Z,100228.66
2022-12-15T13:09:16.985Z,100225.09
2022-12-15T13:11:50.969Z,100226.41
2022-12-15T13:14:31.332Z,100229.97
2022-12-15T13:20:01.222Z,100221.06
2022-12-15T13:22:38.753Z,100218.50
2022-12-15T13:25:35.686Z,100216.06
2022-12-15T13:28:17.652Z,100214.59
2022-12-15T13:31:21.758Z,100209.09
2022-12-15T13:33:51.247Z,100204.56
2022-12-15T13:36:39.172Z,100199.38
2022-12-15T13:39:17.616Z,100196.63
2022-12-15T13:44:54.796Z,100200.53
2022-12-15T13:47:25.736Z,100185.91
2022-12-15T13:50:02.111Z,100189.81
2022-12-15T13:53:16.510Z,100187.88
2022-12-15T13:55:28.087Z,100192.25
2022-12-15T13:58:01.599Z,100188.69
2022-12-15T14:00:28.122Z,100192.56
2022-12-15T14:03:06.844Z,100183.31
2022-12-15T14:05:33.850Z,100187.69
2022-12-15T14:08:03.001Z,100181.69
2022-12-15T14:10:41.705Z,100179.56
2022-12-15T14:13:17.465Z,100183.47
2022-12-15T14:16:15.682Z,100184.91
2022-12-15T14:18:42.971Z,100185.22
2022-12-15T14:21:27.043Z,100188.94
2022-12-15T14:26:41.401Z,100178.06
2022-12-15T14:29:09.800Z,100176.75
2022-12-15T14:31:37.382Z,100172.69
2022-12-15T14:34:08.961Z,100168.94
2022-12-15T14:36:38.197Z,100163.22
2022-12-15T14:39:08.487Z,100152.06
2022-12-15T14:41:40.516Z,100153.81
2022-12-15T14:44:31.505Z,100161.72
2022-12-15T14:47:08.444Z,100155.22
2022-12-15T14:49:42.563Z,100156.31
2022-12-15T14:52:25.782Z,100157.88
2022-12-15T14:54:57.304Z,100157.22
2022-12-15T14:57:25.910Z,100151.31
2022-12-15T14:59:53.577Z,100155.34
2022-12-15T15:02:30.365Z,100148.97
2022-12-15T15:05:07.284Z,100140.34
2022-12-15T15:07:35.274Z,100147.06
2022-12-15T15:10:04.774Z,100141.22
2022-12-15T15:12:43.641Z,100147.78
2022-12-15T15:15:19.018Z,100142.19
2022-12-15T15:17:51.001Z,100144.59
2022-12-15T15:20:18.836Z,100143.03
2022-12-15T15:22:46.941Z,100145.09
2022-12-15T15:25:39.883Z,100145.00
2022-12-15T15:28:16.062Z,100141.88
2022-12-15T15:30:48.550Z,100143.59
2022-12-15T15:33:16.470Z,100142.09
2022-12-15T15:35:44.465Z,100146.91
2022-12-15T15:38:19.947Z,100155.53
2022-12-15T15:40:55.051Z,100151.28
2022-12-15T15:43:22.395Z,100162.88
2022-12-15T15:45:50.727Z,100157.50
2022-12-15T15:48:28.829Z,100160.34
2022-12-15T15:50:55.853Z,100162.28
2022-12-15T15:53:24.834Z,100164.66
2022-12-15T15:55:55.115Z,100170.53
2022-12-15T15:58:21.694Z,100165.94
2022-12-15T16:00:48.017Z,100175.94
2022-12-15T16:03:15.009Z,100184.28
2022-12-15T16:05:42.591Z,100178.84
2022-12-15T16:08:15.848Z,100179.25
2022-12-15T16:10:45.900Z,100186.47
2022-12-15T16:13:12.627Z,100194.53
2022-12-15T16:15:39.045Z,100186.34
2022-12-15T16:18:05.514Z,100199.88
2022-12-15T16:20:33.541Z,100198.84
2022-12-15T16:23:05.379Z,100198.63
2022-12-15T16:25:46.638Z,100206.66
2022-12-15T16:28:17.829Z,100205.66
2022-12-15T16:30:45.097Z,100208.97
2022-12-15T16:33:13.099Z,100202.44
2022-12-15T16:35:41.883Z,100208.84
2022-12-15T16:38:21.242Z,100213.28
2022-12-15T16:40:47.687Z,100215.53
2022-12-15T16:43:19.854Z,100214.00
2022-12-15T16:45:48.956Z,100213.44
2022-12-15T16:48:16.232Z,100226.94
2022-12-15T16:50:46.859Z,100230.63
2022-12-15T16:53:19.135Z,100233.41
2022-12-15T16:55:47.966Z,100233.47
2022-12-15T16:58:17.030Z,100226.38
2022-12-15T17:00:44.682Z,100248.09
2022-12-15T17:03:18.837Z,100241.28
2022-12-15T17:05:49.454Z,100242.66
2022-12-15T17:08:20.473Z,100245.41
2022-12-15T17:10:48.224Z,100247.66
2022-12-15T17:13:45.660Z,100256.75
2022-12-15T17:16:14.469Z,100261.66
2022-12-15T17:18:42.736Z,100252.91
2022-12-15T17:21:15.852Z,100253.50
2022-12-15T17:23:45.526Z,100249.41
2022-12-15T17:26:27.676Z,100256.31
2022-12-15T17:28:58.608Z,100250.28
2022-12-15T17:31:30.260Z,100250.59
2022-12-15T17:34:02.510Z,100256.66
2022-12-15T17:36:29.333Z,100256.97
2022-12-15T17:39:01.160Z,100269.94
2022-12-15T17:41:58.124Z,100267.19
2022-12-15T17:44:32.931Z,100268.56
2022-12-15T17:47:01.797Z,100275.47
2022-12-15T17:49:34.712Z,100280.72
2022-12-15T17:52:04.835Z,100268.69
2022-12-15T17:54:31.292Z,100275.88
2022-12-15T17:56:57.657Z,100291.25
2022-12-15T17:59:24.014Z,100284.75
2022-12-15T18:01:50.436Z,100291.31
2022-12-15T18:04:17.916Z,100306.44
2022-12-15T18:06:44.798Z,100300.94
2022-12-15T18:09:17.275Z,100301.53
2022-12-15T18:11:46.541Z,100301.53
2022-12-15T18:14:18.513Z,100308.13
2022-12-15T18:16:45.582Z,100300.19
2022-12-15T18:19:15.645Z,100298.53
2022-12-15T18:21:44.218Z,100299.94
2022-12-15T18:24:15.523Z,100305.19
2022-12-15T18:26:42.685Z,100298.91
2022-12-15T18:29:19.931Z,100303.03
2022-12-15T18:31:50.651Z,100293.97
2022-12-15T18:34:21.093Z,100288.28
2022-12-15T18:36:47.537Z,100283.06
2022-12-15T18:39:19.815Z,100280.13
2022-12-15T18:41:46.895Z,100274.66
2022-12-15T18:44:25.211Z,100272.78
2022-12-15T18:46:53.058Z,100266.75
2022-12-15T18:49:22.388Z,100263.78
2022-12-15T18:51:49.207Z,100261.91
2022-12-15T18:54:23.908Z,100264.97
2022-12-15T18:56:51.738Z,100269.63
2022-12-15T18:59:19.030Z,100271.56
2022-12-15T19:01:47.623Z,100277.34
2022-12-15T19:04:14.805Z,100274.88
2022-12-15T19:06:41.663Z,100279.00
2022-12-15T19:09:15.632Z,100283.13
2022-12-15T19:12:02.168Z,100281.50
2022-12-15T19:14:40.761Z,100281.25
2022-12-15T19:17:29.140Z,100281.84
2022-12-15T19:20:18.415Z,100277.75
2022-12-15T19:22:47.039Z,100280.78
2022-12-15T19:25:25.551Z,100280.22
2022-12-15T19:27:59.299Z,100276.69
2022-12-15T19:30:29.238Z,100272.06
2022-12-15T19:32:56.465Z,100269.63
2022-12-15T19:35:22.982Z,100266.63
2022-12-15T19:37:50.024Z,100268.03
2022-12-15T19:40:23.996Z,100265.06
2022-12-15T19:42:53.064Z,100260.69
2022-12-15T19:45:27.242Z,100258.25
2022-12-15T19:47:54.398Z,100260.97
2022-12-15T19:50:24.169Z,100254.16
2022-12-15T19:52:54.741Z,100254.97
2022-12-15T19:55:25.915Z,100258.81
2022-12-15T19:57:52.505Z,100260.72
2022-12-15T20:00:22.225Z,100265.66
2022-12-15T20:02:51.217Z,100265.66
2022-12-15T20:05:19.005Z,100271.72
2022-12-15T20:07:46.389Z,100271.16
2022-12-15T20:10:31.225Z,100270.94
2022-12-15T20:12:58.785Z,100272.84
2022-12-15T20:15:28.559Z,100275.34
2022-12-15T20:17:56.544Z,100282.47
2022-12-15T20:20:24.648Z,100276.44
2022-12-15T20:22:54.608Z,100275.13
2022-12-15T20:25:26.753Z,100275.41
2022-12-15T20:27:53.280Z,100272.94
2022-12-15T20:30:26.765Z,100277.88
2022-12-15T20:32:53.252Z,100276.53
2022-12-15T20:35:21.733Z,100268.91
2022-12-15T20:37:48.773Z,100268.09
2022-12-15T20:40:18.502Z,100273.00
2022-12-15T20:42:44.931Z,100261.25
2022-12-15T20:45:19.377Z,100264.84
2022-12-15T20:47:47.712Z,100264.31
2022-12-15T20:50:46.297Z,100271.97
2022-12-15T20:53:25.314Z,100265.41
2022-12-15T20:55:53.650Z,100269.25
2022-12-15T20:58:20.617Z,100259.44
2022-12-15T21:00:48.633Z,100259.44
2022-12-15T21:03:31.929Z,100262.19
2022-12-15T21:06:00.345Z,100255.09
2022-12-15T21:08:29.675Z,100262.75
2022-12-15T21:11:01.847Z,100270.41
2022-12-15T21:13:31.886Z,100263.31
2022-12-15T21:15:58.646Z,100278.91
2022-12-15T21:21:21.385Z,100269.34
2022-12-15T21:23:48.558Z,100274.00
2022-12-15T21:26:19.380Z,100285.22
2022-12-15T21:28:47.868Z,100270.75
2022-12-15T21:31:15.922Z,100271.28
2022-12-15T21:33:42.838Z,100266.13
2022-12-15T21:36:18.010Z,100275.16
2022-12-15T21:38:47.719Z,100283.59
2022-12-15T21:41:20.853Z,100282.56
2022-12-15T21:43:47.758Z,100269.97
2022-12-15T21:46:27.897Z,100277.94
2022-12-15T21:49:14.113Z,100283.41
2022-12-15T21:51:46.915Z,100279.00
2022-12-15T21:54:27.362Z,100276.56
2022-12-15T21:56:56.943Z,100278.47
2022-12-15T21:59:26.900Z,100274.38
2022-12-15T22:01:55.107Z,100284.50
2022-12-15T22:04:26.740Z,100276.28
2022-12-15T22:06:53.616Z,100282.84
2022-12-15T22:09:21.294Z,100280.41
2022-12-15T22:11:50.987Z,100283.97
2022-12-15T22:14:33.222Z,100288.34
2022-12-15T22:17:01.589Z,100281.53
2022-12-15T22:19:28.218Z,100293.00
2022-12-15T22:21:55.694Z,100294.94
2022-12-15T22:24:22.292Z,100305.28
2022-12-15T22:26:50.939Z,100299.59
2022-12-15T22:29:20.543Z,100301.22
2022-12-15T22:31:53.332Z,100307.25
2022-12-15T22:34:24.262Z,100315.72
2022-12-15T22:36:51.931Z,100303.41
2022-12-15T22:39:19.001Z,100315.44
2022-12-15T22:41:48.221Z,100315.97
2022-12-15T22:44:27.056Z,100320.91
2022-12-15T22:46:56.121Z,100316.81
2022-12-15T22:49:28.531Z,100320.91
2022-12-15T22:51:55.154Z,100315.75
2022-12-15T22:54:24.642Z,100322.56
2022-12-15T22:56:55.660Z,100318.19
2022-12-15T23:00:03.133Z,100316.81
2022-12-15T23:02:35.235Z,100324.75
2022-12-15T23:05:02.003Z,100332.13
2022-12-15T23:07:28.648Z,100323.38
2022-12-15T23:10:14.963Z,100330.75
2022-12-15T23:12:41.428Z,100328.31
2022-12-15T23:15:27.058Z,100329.41
2022-12-15T23:17:53.560Z,100337.59
2022-12-15T23:20:21.425Z,100337.59
2022-12-15T23:22:47.776Z,100337.03
2022-12-15T23:25:14.189Z,100344.41
2022-12-15T23:27:40.614Z,100347.16
2022-12-15T23:30:08.278Z,100350.16
2022-12-15T23:32:34.600Z,100346.63
2022-12-15T23:35:00.967Z,100342.22
2022-12-15T23:37:27.379Z,100340.59
2022-12-15T23:39:53.729Z,100340.88
2022-12-15T23:42:20.200Z,100345.22
2022-12-15T23:44:48.076Z,100340.06
2022-12-15T23:47:14.875Z,100341.16
2022-12-15T23:49:41.283Z,100344.94
2022-12-15T23:52:08.421Z,100347.69
2022-12-15T23:54:34.794Z,100353.13
2022-12-15T23:57:02.038Z,100357.78
2022-12-15T23:59:28.413Z,100352.59
